createdAt,value
2022-12-27T10:39:53.843Z,4.1
2022-12-27T10:44:58.982Z,4.6
2022-12-27T10:50:05.064Z,4.4
2022-12-27T10:55:11.157Z,4.7
2022-12-27T11:00:17.301Z,4.8
2022-12-27T11:05:23.408Z,4.8
2022-12-27T11:10:29.597Z,4.8
2022-12-27T11:15:35.689Z,4.8
2022-12-27T11:20:41.800Z,4.9
2022-12-27T11:25:47.876Z,4.8
2022-12-27T11:30:54.130Z,4.7
2022-12-27T11:36:00.230Z,4.7
2022-12-27T11:41:06.414Z,4.7
2022-12-27T11:46:12.404Z,4.7
2022-12-27T11:51:18.636Z,4.7
2022-12-27T11:56:24.668Z,4.6
2022-12-27T12:01:30.867Z,4.6
2022-12-27T12:06:36.861Z,4.8
2022-12-27T12:11:42.980Z,4.8
2022-12-27T12:16:49.128Z,4.8
2022-12-27T12:21:54.415Z,4.8
2022-12-27T12:26:59.360Z,4.8
2022-12-27T12:37:11.627Z,4.6
2022-12-27T12:42:17.785Z,4.6
2022-12-27T12:47:23.921Z,4.4
2022-12-27T12:52:29.969Z,4.3
2022-12-27T12:57:36.158Z,4.2
2022-12-27T13:02:42.222Z,4
2022-12-27T13:07:48.325Z,4.1
2022-12-27T13:12:54.571Z,4
2022-12-27T13:18:00.564Z,4
2022-12-27T13:23:06.687Z,3.9
2022-12-27T13:28:12.827Z,3.8
2022-12-27T13:33:18.020Z,3.9
2022-12-27T13:38:24.077Z,4
2022-12-27T13:43:30.263Z,4.2
2022-12-27T13:48:36.316Z,4.1
2022-12-27T13:53:42.441Z,4.1
2022-12-27T13:58:48.648Z,3.6
2022-12-27T14:03:54.709Z,3.4
2022-12-27T14:09:00.798Z,3.3
2022-12-27T14:14:05.938Z,3.2
2022-12-27T14:19:11.085Z,3.1
2022-12-27T14:24:16.210Z,3
2022-12-27T14:29:21.372Z,2.8
2022-12-27T14:34:27.469Z,2.7
2022-12-27T14:39:33.581Z,2.5
2022-12-27T14:44:39.699Z,2.5
2022-12-27T14:49:45.822Z,2.5
2022-12-27T14:54:51.955Z,2.6
2022-12-27T14:59:58.087Z,2.5
2022-12-27T15:05:04.182Z,2.4
2022-12-27T15:10:10.296Z,2
2022-12-27T15:15:16.421Z,2
2022-12-27T15:20:22.556Z,2
2022-12-27T15:25:28.661Z,2
2022-12-27T15:30:34.761Z,2.1
2022-12-27T15:35:39.900Z,2
2022-12-27T15:40:46.031Z,1.8
2022-12-27T15:45:52.141Z,1.7
2022-12-27T15:50:58.269Z,1.7
2022-12-27T15:56:04.378Z,1.8
2022-12-27T16:01:10.505Z,1.8
2022-12-27T16:06:16.623Z,1.8
2022-12-27T16:11:21.776Z,1.8
2022-12-27T16:16:26.906Z,1.9
2022-12-27T16:21:33.001Z,1.8
2022-12-27T16:26:39.204Z,1.6
2022-12-27T16:31:45.257Z,1.4
2022-12-27T16:36:51.373Z,1.2
2022-12-27T16:41:57.485Z,1.3
2022-12-27T16:47:03.632Z,1.4
2022-12-27T16:52:09.770Z,1.5
2022-12-27T16:57:15.923Z,1.3
2022-12-27T17:02:21.954Z,1.4
2022-12-27T17:07:28.078Z,1.4
2022-12-27T17:12:34.253Z,1.3
2022-12-27T17:17:40.313Z,1
2022-12-27T17:22:45.510Z,0.7
2022-12-27T17:27:51.666Z,0.8
2022-12-27T17:32:57.695Z,0.9
2022-12-27T17:38:03.808Z,0.9
2022-12-27T17:43:09.924Z,1.3
2022-12-27T17:48:16.129Z,1.3
2022-12-27T17:53:22.173Z,1.3
2022-12-27T17:58:27.295Z,1.6
2022-12-27T18:03:32.432Z,2
2022-12-27T18:08:37.606Z,1.9
2022-12-27T18:13:42.710Z,1.7
2022-12-27T18:18:47.857Z,1.9
